Latest Weather Observations for Roxby Downs

IDS60801

Issued at 3:32 pm CDT Monday 2 March 2015 (issued every 30 minutes, with the page automatically refreshed every 10 minutes)

About weather observations | Map of weather stations | Latest weather observations for SA | Other Formats
Station Details ID: 016096 Name: OLYMPIC DAM AERODROME Lat: -30.48 Lon: 136.88 Height: 98.5 m
Data from the previous 72 hours. | See also: Recent months at Roxby Downs
Date/Time
CDT
Temp
°C
App
Temp
°C
Dew
Point
Rel
Hum
%
Delta-T
°C
Wind Press
QNH
hPa
Press
MSL
hPa
Rain
since 9 am
mm
Dir
 
Spd
km/h
Gust
km/h
Spd
kts
Gust
kts
02/03:30pm 34.4 30.1 0.9 12 16.8 W 13 19 7 10 1010.1 1009.6 0.0
02/03:00pm 34.2 31.0 0.8 12 16.7 NNE 7 13 4 7 1010.4 1009.9 0.0
02/02:30pm 33.9 30.1 1.6 13 16.3 S 11 19 6 10 1010.8 1010.3 0.0
02/02:00pm 32.6 29.0 0.6 13 15.8 SSE 9 15 5 8 1011.1 1010.6 0.0
02/01:30pm 32.8 29.6 0.8 13 15.9 E 7 11 4 6 1011.5 1011.0 0.0
02/01:00pm 31.1 26.7 0.5 14 14.9 NE 13 20 7 11 1011.8 1011.3 0.0
02/12:30pm 31.1 27.6 1.4 15 14.7 E 9 15 5 8 1012.3 1011.9 0.0
02/12:00pm 29.8 26.3 1.3 16 14.0 ESE 9 19 5 10 1012.8 1012.4 0.0
02/11:30am 29.6 25.5 2.0 17 13.7 E 13 22 7 12 1012.7 1012.3 0.0
02/11:00am 28.2 24.5 2.4 19 12.7 ESE 11 20 6 11 1012.9 1012.5 0.0
02/10:30am 27.2 23.5 2.3 20 12.2 ESE 11 17 6 9 1013.1 1012.7 0.0
02/10:00am 26.4 23.0 4.2 24 11.2 ESE 11 17 6 9 1013.1 1012.7 0.0
02/09:30am 24.3 20.6 4.6 28 9.9 SE 13 17 7 9 1013.1 1012.7 0.0
02/09:00am 22.8 19.4 5.7 33 8.7 SE 13 17 7 9 1012.9 1012.5 0.0
02/08:30am 20.2 17.2 7.9 45 6.4 SE 13 17 7 9 1012.7 1012.3 0.0
02/08:00am 16.8 14.8 8.8 59 4.1 SSE 9 9 5 5 1012.6 1012.2 0.0
02/07:30am 14.7 12.2 8.4 66 3.2 SSE 11 11 6 6 1012.4 1012.0 0.0
02/07:00am 14.6 12.6 8.8 68 3.0 SSW 9 11 5 6 1012.4 1012.0 0.0
02/06:30am 14.6 14.1 7.9 64 3.4 CALM 0 0 0 0 1012.0 1011.6 0.0
02/06:00am 16.2 14.5 8.4 60 4.0 S 7 9 4 5 1011.9 1011.5 0.0
02/05:30am 17.3 15.1 9.5 60 4.1 SSE 11 13 6 7 1011.5 1011.0 0.0
02/05:00am 17.7 15.8 9.1 57 4.5 S 9 11 5 6 1011.4 1010.9 0.0
02/04:30am 18.7 16.6 9.8 56 4.7 SSE 11 13 6 7 1011.4 1010.9 0.0
02/04:00am 19.3 16.8 9.8 54 5.1 SSE 13 13 7 7 1011.4 1010.9 0.0
02/03:30am 19.8 18.1 9.7 52 5.4 SSE 9 13 5 7 1011.7 1011.2 0.0
02/03:00am 20.3 17.8 9.8 51 5.7 SSE 13 15 7 8 1011.4 1010.9 0.0
02/02:30am 20.1 17.9 9.4 50 5.7 SSE 11 15 6 8 1011.7 1011.2 0.0
02/02:00am 20.4 17.7 9.0 48 6.0 SSE 13 15 7 8 1012.0 1011.6 0.0
02/01:30am 21.3 18.1 8.6 44 6.7 SSE 15 20 8 11 1012.2 1011.8 0.0
02/01:00am 22.2 18.2 8.3 41 7.4 SSE 19 24 10 13 1012.2 1011.8 0.0
02/12:30am 23.0 18.7 7.9 38 8.0 SSE 20 26 11 14 1012.2 1011.8 0.0
02/12:00am 23.6 19.2 7.3 35 8.5 SSE 20 28 11 15 1012.2 1011.8 0.0
 
Date/Time
CDT
Temp
°C
App
Temp
°C
Dew
Point
Rel
Hum
%
Delta-T
°C
Wind Press
QNH
hPa
Press
MSL
hPa
Rain
since 9 am
mm
Dir
 
Spd
km/h
Gust
km/h
Spd
kts
Gust
kts
01/11:30pm 24.1 19.6 5.9 31 9.3 SSE 19 22 10 12 1012.5 1012.1 0.0
01/11:00pm 24.7 20.1 3.9 26 10.3 SSE 17 24 9 13 1012.7 1012.3 0.0
01/10:30pm 25.5 20.5 3.5 24 10.9 S 19 28 10 15 1012.5 1012.1 0.0
01/10:00pm 25.7 21.0 3.0 23 11.1 S 17 20 9 11 1012.6 1012.2 0.0
01/09:30pm 26.0 21.2 2.7 22 11.4 S 17 20 9 11 1012.3 1011.9 0.0
01/09:00pm 26.6 22.2 2.5 21 11.8 S 15 19 8 10 1012.1 1011.7 0.0
01/08:30pm 27.4 23.0 2.5 20 12.3 S 15 20 8 11 1011.9 1011.5 0.0
01/08:00pm 28.2 22.8 2.4 19 12.7 S 20 26 11 14 1011.9 1011.5 0.0
01/07:30pm 29.2 23.8 2.5 18 13.3 S 20 30 11 16 1011.7 1011.2 0.0
01/07:00pm 30.1 24.7 2.4 17 13.9 S 20 28 11 15 1011.5 1011.0 0.0
01/06:30pm 30.3 24.4 1.7 16 14.2 SSE 22 32 12 17 1011.4 1010.9 0.0
01/06:00pm 30.6 24.7 1.9 16 14.3 S 22 33 12 18 1011.2 1010.7 0.0
01/05:30pm 30.2 24.4 2.5 17 13.9 SSE 22 33 12 18 1011.3 1010.8 0.0
01/05:00pm 30.2 23.7 2.5 17 13.9 S 26 39 14 21 1011.4 1010.9 0.0
01/04:30pm 29.7 22.6 3.6 19 13.3 SSE 30 43 16 23 1011.5 1011.0 0.0
01/04:22pm 29.9 23.2 1.4 16 14.0 SSE 26 50 14 27 1011.5 1011.0 0.0
01/04:00pm 30.1 23.7 3.2 18 13.6 S 26 39 14 21 1011.8 1011.3 0.0
01/03:30pm 30.0 23.9 4.6 20 13.2 SSE 26 37 14 20 1011.9 1011.5 0.0
01/03:00pm 29.1 23.2 3.9 20 12.9 SSE 24 43 13 23 1012.3 1011.9 0.0
01/02:30pm 28.1 21.7 5.0 23 11.9 S 28 39 15 21 1012.7 1012.3 0.0
01/02:00pm 28.3 22.7 7.0 26 11.4 SSE 26 43 14 23 1012.8 1012.4 0.0
01/01:30pm 27.1 20.7 7.0 28 10.7 S 30 43 16 23 1013.2 1012.8 0.0
01/01:06pm 26.8 20.9 7.3 29 10.4 SSE 28 46 15 25 1013.5 1013.1 0.0
01/01:00pm 26.5 20.2 7.5 30 10.2 SSE 30 39 16 21 1013.5 1013.1 0.0
01/12:30pm 25.7 19.0 7.3 31 9.8 S 32 43 17 23 1014.1 1013.7 0.0
01/12:00pm 26.0 19.8 8.0 32 9.7 SSE 30 41 16 22 1014.3 1013.9 0.0
01/11:30am 24.3 17.8 8.3 36 8.6 SSE 32 44 17 24 1014.5 1014.1 0.0
01/11:00am 23.3 17.0 9.7 42 7.4 S 33 44 18 24 1014.7 1014.3 0.0
01/10:30am 22.2 15.0 10.4 47 6.5 S 39 48 21 26 1014.5 1014.1 0.0
01/10:00am 21.9 16.1 11.6 52 5.8 SSE 33 44 18 24 1014.1 1013.5 0.0
01/09:30am 21.0 15.4 11.6 55 5.2 SSE 32 44 17 24 1013.9 1013.3 0.0
01/09:00am 20.3 14.5 11.5 57 4.9 S 33 46 18 25 1013.6 1013.0 0.0
01/08:30am 19.4 13.9 11.7 61 4.3 S 32 41 17 22 1013.6 1013.0 0.0
01/08:00am 18.9 13.4 11.7 63 4.0 S 32 41 17 22 1013.3 1012.7 0.0
01/07:30am 18.8 13.3 11.9 64 3.8 S 32 41 17 22 1012.9 1012.3 0.0
01/07:00am 18.9 13.7 11.7 63 4.0 S 30 43 16 23 1012.3 1011.7 0.0
01/06:30am 19.2 13.7 11.7 62 4.2 S 32 46 17 25 1011.9 1011.3 0.0
01/06:00am 19.4 14.0 12.2 63 4.0 S 32 46 17 25 1011.6 1011.0 0.0
01/05:30am 19.6 13.3 12.4 63 4.1 S 37 48 20 26 1011.3 1010.7 0.0
01/05:10am 19.8 14.8 12.1 61 4.3 S 30 48 16 26 1011.2 1010.6 0.0
01/05:00am 19.9 13.8 11.9 60 4.5 S 35 46 19 25 1011.0 1010.4 0.0
01/04:30am 20.3 14.5 10.7 54 5.3 S 32 44 17 24 1010.8 1010.2 0.0
01/04:00am 20.9 14.3 10.1 50 5.9 S 35 48 19 26 1010.4 1009.8 0.0
01/03:30am 21.8 16.5 13.2 58 5.0 S 33 44 18 24 1010.2 1009.6 0.0
01/03:00am 22.5 18.4 14.9 62 4.5 S 30 41 16 22 1009.8 1009.2 0.0
01/02:30am 23.1 19.0 14.9 60 4.9 S 30 41 16 22 1009.9 1009.3 0.0
01/02:00am 23.9 19.5 15.1 58 5.3 S 32 43 17 23 1009.7 1009.1 0.0
01/01:30am 24.5 19.9 15.1 55 5.7 S 33 43 18 23 1009.6 1009.0 0.0
01/01:00am 25.5 21.5 15.2 53 6.2 S 30 44 16 24 1009.4 1008.8 0.0
01/12:30am 26.3 21.7 16.0 53 6.3 S 35 48 19 26 1009.2 1008.6 0.0
01/12:00am 26.8 22.5 15.8 51 6.8 SSE 33 44 18 24 1008.8 1008.2 0.0
 
Date/Time
CDT
Temp
°C
App
Temp
°C
Dew
Point
Rel
Hum
%
Delta-T
°C
Wind Press
QNH
hPa
Press
MSL
hPa
Rain
since 9 am
mm
Dir
 
Spd
km/h
Gust
km/h
Spd
kts
Gust
kts
28/11:30pm 27.8 22.2 15.5 47 7.6 S 39 50 21 27 1008.7 1008.1 0.0
28/11:00pm 28.8 23.8 13.9 40 9.0 SSE 33 46 18 25 1008.5 1007.9 0.0
28/10:30pm 30.2 25.0 13.5 36 10.0 S 33 50 18 27 1007.8 1007.2 0.0
28/10:00pm 32.4 26.9 13.6 32 11.4 SSW 35 48 19 26 1007.2 1006.6 0.0
28/09:30pm 33.5 28.0 12.5 28 12.6 SSW 33 46 18 25 1006.5 1005.8 0.0
28/09:00pm 34.5 28.6 10.4 23 14.1 SSW 32 44 17 24 1005.8 1005.1 0.0
28/08:35pm 35.3 28.2 9.7 21 14.8 SSW 37 56 20 30 1005.1 1004.5 0.0
28/08:30pm 35.6 28.0 9.2 20 15.2 SSW 39 56 21 30 1005.0 1004.4 0.0
28/08:28pm 35.8 28.5 8.6 19 15.5 SSW 37 56 20 30 1004.9 1004.3 0.0
28/08:00pm 37.0 30.6 5.1 14 17.3 SSW 28 43 15 23 1004.3 1003.7 0.0
28/07:30pm 38.0 29.7 2.4 11 18.7 SW 35 46 19 25 1003.8 1003.2 0.0
28/07:00pm 40.0 34.6 1.1 9 20.2 WNW 19 30 10 16 1003.1 1002.5 0.0
28/06:30pm 40.7 34.0 1.7 9 20.6 WNW 26 35 14 19 1003.1 1002.5 0.0
28/06:00pm 40.5 34.2 1.5 9 20.5 NW 24 35 13 19 1003.0 1002.4 0.0
28/05:30pm 41.3 35.1 2.1 9 20.9 NW 24 35 13 19 1002.6 1002.0 0.0
28/05:00pm 41.0 35.5 1.9 9 20.7 W 20 33 11 18 1002.8 1002.2 0.0
28/04:30pm 41.6 36.4 2.3 9 21.1 WNW 19 32 10 17 1002.9 1002.3 0.0
28/04:00pm 42.1 37.2 4.2 10 20.9 WNW 19 32 10 17 1003.2 1002.6 0.0
28/03:30pm 41.2 36.7 2.0 9 20.9 WNW 15 26 8 14 1003.4 1002.8 0.0
28/03:00pm 40.8 35.9 1.7 9 20.7 NW 17 24 9 13 1003.8 1003.2 0.0
28/02:30pm 40.7 35.8 1.7 9 20.6 WNW 17 26 9 14 1004.1 1003.5 0.0
28/02:00pm 39.9 34.7 2.5 10 19.8 NW 19 30 10 16 1004.6 1004.0 0.0
28/01:30pm 40.1 34.4 2.7 10 20.0 NW 22 32 12 17 1005.0 1004.4 0.0
28/01:00pm 39.3 33.7 3.4 11 19.2 NNW 22 39 12 21 1005.3 1004.7 0.0
28/12:30pm 38.4 31.5 2.8 11 18.9 NNW 28 39 15 21 1005.9 1005.2 0.0
28/12:00pm 38.3 32.6 5.0 13 18.2 NNW 24 35 13 19 1006.1 1005.4 0.0
28/11:30am 38.1 33.0 6.0 14 17.8 N 22 33 12 18 1006.6 1005.9 0.0
28/11:00am 36.4 31.1 6.6 16 16.5 N 24 32 13 17 1006.6 1005.9 0.0
28/10:30am 35.3 29.6 6.6 17 15.9 N 26 33 14 18 1006.5 1005.8 0.0
28/10:00am 34.3 29.3 6.6 18 15.2 N 22 32 12 17 1006.5 1005.8 0.0
28/09:30am 33.0 27.6 6.3 19 14.5 N 24 30 13 16 1006.4 1005.7 0.0
28/09:00am 31.7 27.6 6.0 20 13.8 N 17 26 9 14 1006.2 1005.5 0.0
28/08:30am 29.3 26.1 6.7 24 12.1 N 13 17 7 9 1006.0 1005.3 0.0
28/08:00am 27.5 25.1 6.8 27 11.0 NNE 9 13 5 7 1005.7 1005.0 0.0
28/07:30am 26.0 22.7 6.6 29 10.2 NNE 13 15 7 8 1005.2 1004.6 0.0
28/07:00am 25.9 23.4 6.5 29 10.2 NNE 9 13 5 7 1004.9 1004.3 0.0
28/06:30am 26.6 23.7 6.6 28 10.6 NNE 11 13 6 7 1004.7 1004.1 0.0
28/06:00am 26.8 24.0 6.8 28 10.6 NNE 11 13 6 7 1004.5 1003.9 0.0
28/05:30am 27.3 24.1 6.7 27 10.9 NNE 13 15 7 8 1004.2 1003.6 0.0
28/05:00am 27.3 24.6 7.2 28 10.7 NNE 11 13 6 7 1004.1 1003.5 0.0
28/04:30am 26.7 23.8 6.7 28 10.6 NE 11 13 6 7 1004.0 1003.4 0.0
28/04:00am 27.0 24.5 6.4 27 10.8 NE 9 11 5 6 1004.0 1003.4 0.0
28/03:30am 28.1 25.9 6.2 25 11.6 NNE 7 9 4 5 1004.4 1003.8 0.0
28/03:00am 29.1 25.8 6.5 24 12.1 ENE 13 15 7 8 1004.4 1003.8 0.0
28/02:30am 28.5 26.4 6.6 25 11.7 NE 7 9 4 5 1004.6 1004.0 0.0
28/02:00am 30.3 28.3 6.2 22 12.9 NE 6 7 3 4 1005.0 1004.4 0.0
28/01:30am 31.1 27.8 6.2 21 13.4 NE 13 17 7 9 1005.2 1004.6 0.0
28/01:00am 29.8 29.0 6.5 23 12.5 CALM 0 0 0 0 1006.1 1005.4 0.0
28/12:30am 29.8 29.1 7.1 24 12.3 CALM 0 0 0 0 1006.1 1005.4 0.0
28/12:00am 30.0 29.1 6.0 22 12.8 CALM 0 0 0 0 1006.2 1005.5 0.0
 
Date/Time
CDT
Temp
°C
App
Temp
°C
Dew
Point
Rel
Hum
%
Delta-T
°C
Wind Press
QNH
hPa
Press
MSL
hPa
Rain
since 9 am
mm
Dir
 
Spd
km/h
Gust
km/h
Spd
kts
Gust
kts
27/11:30pm 30.2 29.3 6.1 22 12.9 CALM 0 0 0 0 1006.5 1005.8 0.0
27/11:00pm 30.9 28.8 6.0 21 13.3 W 6 6 3 3 1006.8 1006.2 0.0
27/10:30pm 31.9 29.7 6.2 20 13.9 W 7 7 4 4 1006.9 1006.3 0.0
27/10:00pm 33.3 31.2 5.8 18 14.8 NW 6 7 3 4 1006.8 1006.2 0.0
27/09:30pm 34.4 31.9 5.0 16 15.8 WSW 7 9 4 5 1006.6 1005.9 0.0
27/09:00pm 35.0 31.9 5.4 16 16.0 WNW 11 17 6 9 1006.3 1005.6 0.0
27/08:30pm 35.4 31.8 4.8 15 16.5 NNW 13 19 7 10 1005.8 1005.1 0.0
27/08:00pm 35.7 33.3 5.1 15 16.5 NE 7 15 4 8 1005.2 1004.6 0.0
27/07:30pm 36.2 32.3 5.5 15 16.8 NNW 15 20 8 11 1005.1 1004.5 0.0
27/07:00pm 36.7 32.7 4.9 14 17.2 NW 15 20 8 11 1005.1 1004.5 0.0
27/06:30pm 37.0 34.6 5.1 14 17.4 N 7 19 4 10 1005.1 1004.5 0.0
27/06:00pm 37.4 32.9 4.4 13 17.8 N 17 22 9 12 1005.0 1004.4 0.0
27/05:30pm 37.8 33.4 4.7 13 18.0 N 17 24 9 13 1005.0 1004.4 0.0
27/05:00pm 37.2 32.9 5.3 14 17.4 NNW 17 30 9 16 1005.1 1004.5 0.0
27/04:30pm 37.6 34.3 4.5 13 17.9 ESE 11 19 6 10 1005.2 1004.6 0.0
27/04:00pm 37.4 32.6 4.4 13 17.8 N 19 30 10 16 1005.7 1005.0 0.0

Other Formats:

Comma delimited format used in spreadsheet applications
http://www.bom.gov.au/fwo/IDS60801/IDS60801.95658.axf

JavaScript Object Notation format (JSON) in row-major order
http://www.bom.gov.au/fwo/IDS60801/IDS60801.95658.json